Time;durP1;ratioP1;P1;durP2;ratioP2;P2;SDS_P1;SDS_P2;PMS_P1;PMS_P2;Temp;Humidity;BMP_temperature;BMP_pressure;BME280_temperature;BME280_humidity;BME280_pressure;Samples;Min_cycle;Max_cycle;Signal;HPM_P1;HPM_P2
2023/06/10 00:08:07;;;;;;;2.63;1.83;;;;;;;;;;20805306;28;20515;-81
2023/06/10 00:18:09;;;;;;;2.78;1.95;;;;;;;;;;20807251;28;20603;-81
2023/06/10 00:28:11;;;;;;;2.80;2.10;;;;;;;;;;20791394;28;20988;-81
2023/06/10 00:38:17;;;;;;;3.88;2.40;;;;;;;;;;20765675;28;20453;-80
2023/06/10 00:48:19;;;;;;;3.90;2.27;;;;;;;;;;20844441;28;20442;-81
2023/06/10 00:58:21;;;;;;;2.92;2.10;;;;;;;;;;20791342;28;20442;-80
2023/06/10 01:08:33;;;;;;;2.93;2.00;;;;;;;;;;20767399;28;20468;-80
2023/06/10 01:18:35;;;;;;;2.93;2.10;;;;;;;;;;20802500;28;20512;-81
2023/06/10 01:28:43;;;;;;;3.27;2.30;;;24.60;92.60;;;;;;20795832;28;20437;-82
2023/06/10 01:38:47;;;;;;;3.27;2.20;;;;;;;;;;20796742;28;20427;-82
2023/06/10 01:48:50;;;;;;;3.47;2.22;;;;;;;;;;20797366;28;20433;-82
2023/06/10 01:58:54;;;;;;;2.67;1.95;;;;;;;;;;20822430;28;20789;-82
2023/06/10 02:08:56;;;;;;;2.80;2.00;;;;;;;;;;20857741;28;20445;-83
2023/06/10 02:18:58;;;;;;;3.27;2.13;;;;;;;;;;20812308;28;20462;-82
2023/06/10 02:29:00;;;;;;;2.72;2.00;;;;;;;;;;20776260;28;20433;-81
2023/06/10 02:39:04;;;;;;;3.80;2.00;;;23.90;99.90;;;;;;20791877;28;20492;-82
2023/06/10 02:49:06;;;;;;;3.75;2.35;;;;;;;;;;20828429;28;20961;-83
2023/06/10 02:59:10;;;;;;;2.80;2.27;;;;;;;;;;20782716;28;20856;-82
2023/06/10 03:09:13;;;;;;;2.67;1.98;;;;;;;;;;20811967;28;20522;-82
2023/06/10 03:19:17;;;;;;;2.43;1.97;;;;;;;;;;20803589;28;20441;-81
2023/06/10 03:29:24;;;;;;;2.80;2.00;;;;;;;;;;20794160;28;20851;-81
2023/06/10 03:39:28;;;;;;;2.70;2.00;;;;;;;;;;20798546;28;20511;-81
2023/06/10 03:49:32;;;;;;;7.80;4.17;;;;;;;;;;20854008;28;20416;-81
2023/06/10 03:59:37;;;;;;;2.77;2.10;;;;;;;;;;20829455;28;20575;-82
2023/06/10 04:09:39;;;;;;;2.83;2.13;;;;;;;;;;20771628;28;20434;-81
2023/06/10 04:19:41;;;;;;;3.07;2.10;;;;;;;;;;20826245;28;20449;-83
2023/06/10 04:29:43;;;;;;;3.05;2.00;;;;;;;;;;20780919;28;20230;-83
2023/06/10 04:39:45;;;;;;;3.38;1.83;;;;;;;;;;20795636;28;20519;-82
2023/06/10 04:49:47;;;;;;;4.73;2.40;;;;;;;;;;20838879;28;20473;-82
2023/06/10 04:59:50;;;;;;;4.03;2.13;;;;;;;;;;20825338;28;20420;-82
2023/06/10 05:09:52;;;;;;;2.67;1.97;;;;;;;;;;20803649;28;20916;-81
2023/06/10 05:19:53;;;;;;;2.95;2.08;;;;;;;;;;20837325;28;20460;-82
2023/06/10 05:29:56;;;;;;;3.53;1.98;;;;;;;;;;20813956;28;20429;-82
2023/06/10 05:39:58;;;;;;;3.00;2.10;;;;;;;;;;20826974;28;20539;-82
2023/06/10 05:50:00;;;;;;;3.58;1.98;;;;;;;;;;20853517;28;20809;-83
2023/06/10 06:00:02;;;;;;;2.22;1.80;;;18.80;97.40;;;;;;20801004;28;20604;-82
2023/06/10 06:10:14;;;;;;;3.60;2.07;;;;;;;;;;20816519;28;20456;-83
2023/06/10 06:20:16;;;;;;;3.63;2.07;;;;;;;;;;20809887;28;20445;-82
2023/06/10 06:30:18;;;;;;;3.28;2.03;;;;;;;;;;20826476;28;20507;-82
2023/06/10 06:40:20;;;;;;;3.87;2.13;;;;;;;;;;20824114;28;20476;-82
2023/06/10 06:50:22;;;;;;;3.92;2.00;;;;;;;;;;20845018;28;20275;-82
2023/06/10 07:00:24;;;;;;;2.80;2.10;;;;;;;;;;20856543;28;20447;-84
2023/06/10 07:10:26;;;;;;;3.73;2.13;;;;;;;;;;20821272;28;20472;-84
2023/06/10 07:20:28;;;;;;;3.10;2.00;;;;;;;;;;20826207;28;20445;-84
2023/06/10 07:30:30;;;;;;;2.87;1.80;;;;;;;;;;20804429;28;20501;-83
2023/06/10 07:40:32;;;;;;;3.70;1.60;;;;;;;;;;20820297;28;20449;-84
2023/06/10 07:50:35;;;;;;;2.50;1.70;;;;;;;;;;20817642;28;20442;-83
2023/06/10 08:00:37;;;;;;;2.35;1.60;;;;;;;;;;20852686;28;20433;-84
2023/06/10 08:10:39;;;;;;;3.10;1.52;;;;;;;;;;20855247;28;20244;-84
2023/06/10 08:20:41;;;;;;;2.40;1.47;;;;;;;;;;20839970;28;21202;-84
2023/06/10 08:30:43;;;;;;;2.10;1.47;;;;;;;;;;20825028;28;20449;-84
2023/06/10 08:40:48;;;;;;;3.00;1.30;;;;;;;;;;20869095;28;20469;-84
2023/06/10 08:50:51;;;;;;;2.70;1.40;;;;;;;;;;20854914;28;20445;-83
2023/06/10 09:00:52;;;;;;;1.90;1.40;;;;;;;;;;20826102;28;21884;-83
2023/06/10 09:10:54;;;;;;;2.33;1.30;;;;;;;;;;20797158;28;20470;-84
2023/06/10 09:20:56;;;;;;;1.85;1.33;;;;;;;;;;20782761;28;20539;-84
2023/06/10 09:31:08;;;;;;;2.00;1.30;;;;;;;;;;20830940;28;20237;-83
2023/06/10 09:41:10;;;;;;;2.00;1.40;;;;;;;;;;20802883;28;20464;-84
2023/06/10 09:51:13;;;;;;;1.90;1.45;;;28.30;87.80;;;;;;20851929;28;20445;-84
2023/06/10 10:01:16;;;;;;;3.30;1.57;;;;;;;;;;20835962;28;20483;-83
2023/06/10 10:11:18;;;;;;;1.90;1.43;;;;;;;;;;20845703;28;20445;-83
2023/06/10 10:21:24;;;;;;;3.10;1.73;;;28.40;89.10;;;;;;20807649;28;20571;-83
2023/06/10 10:31:34;;;;;;;2.10;1.60;;;28.70;90.70;;;;;;20837048;28;20449;-83
2023/06/10 10:41:37;;;;;;;3.28;1.88;;;;;;;;;;20788073;28;20462;-85
2023/06/10 10:51:55;;;;;;;2.15;1.60;;;29.50;90.10;;;;;;20814221;28;20524;-85
2023/06/10 11:01:57;;;;;;;2.77;1.57;;;;;;;;;;20783350;28;20789;-82
2023/06/10 11:12:01;;;;;;;1.92;1.40;;;30.10;82.30;;;;;;20794429;28;20641;-85
2023/06/10 11:22:04;;;;;;;2.22;1.45;;;;;;;;;;20794067;28;20985;-83
2023/06/10 11:32:07;;;;;;;1.80;1.50;;;;;;;;;;20807751;28;20460;-85
2023/06/10 11:42:08;;;;;;;2.00;1.40;;;;;;;;;;20819751;28;20875;-82
2023/06/10 11:52:11;;;;;;;1.50;1.10;;;;;;;;;;20792348;28;20510;-85
2023/06/10 12:02:19;;;;;;;2.70;1.10;;;;;;;;;;20841711;28;20433;-83
2023/06/10 12:12:21;;;;;;;1.80;1.13;;;;;;;;;;20767372;28;20500;-83
2023/06/10 12:22:24;;;;;;;1.50;1.10;;;;;;;;;;20790421;28;20491;-84
2023/06/10 12:32:40;;;;;;;1.10;0.90;;;;;;;;;;20809454;28;20449;-84
2023/06/10 12:42:44;;;;;;;1.83;1.00;;;;;;;;;;20774056;28;20526;-82
2023/06/10 12:52:45;;;;;;;1.90;1.10;;;;;;;;;;20785370;28;20461;-88
2023/06/10 13:02:50;;;;;;;1.20;0.90;;;;;;;;;;20792012;28;20476;-85
2023/06/10 13:12:54;;;;;;;1.08;0.82;;;;;;;;;;20821322;28;20575;-82
2023/06/10 13:22:56;;;;;;;3.50;0.80;;;;;;;;;;20836054;28;20230;-83
2023/06/10 13:32:57;;;;;;;1.45;0.90;;;;;;;;;;20826641;28;20292;-83
2023/06/10 13:42:59;;;;;;;1.10;0.80;;;;;;;;;;20802658;28;20275;-84
2023/06/10 13:53:01;;;;;;;1.73;1.00;;;;;;;;;;20802364;28;20296;-83
2023/06/10 14:03:03;;;;;;;1.20;0.77;;;;;;;;;;20806846;28;20222;-83
2023/06/10 14:13:05;;;;;;;1.15;0.80;;;;;;;;;;20838831;28;20281;-82
2023/06/10 14:23:07;;;;;;;1.15;0.77;;;;;;;;;;20818216;28;20230;-83
2023/06/10 14:33:09;;;;;;;1.30;0.88;;;;;;;;;;20799387;28;20238;-83
2023/06/10 14:43:11;;;;;;;1.98;0.90;;;;;;;;;;20825108;28;20226;-83
2023/06/10 14:53:12;;;;;;;1.05;0.82;;;;;;;;;;20832315;28;20219;-83
2023/06/10 15:03:14;;;;;;;1.30;0.70;;;;;;;;;;20781603;28;20219;-83
2023/06/10 15:13:16;;;;;;;1.40;0.90;;;;;;;;;;20795353;28;20227;-83
2023/06/10 15:23:17;;;;;;;0.98;0.80;;;;;;;;;;20808409;28;20283;-82
2023/06/10 15:33:19;;;;;;;1.40;0.80;;;;;;;;;;20827293;28;20260;-84
2023/06/10 15:43:22;;;;;;;1.27;0.98;;;;;;;;;;20787139;28;20277;-83
2023/06/10 15:53:33;;;;;;;1.05;0.70;;;;;;;;;;20806006;28;20273;-83
2023/06/10 16:03:35;;;;;;;3.20;1.17;;;;;;;;;;20814750;28;20276;-83
2023/06/10 16:13:37;;;;;;;2.00;0.82;;;;;;;;;;20787080;28;20230;-82
2023/06/10 16:23:39;;;;;;;2.55;0.93;;;;;;;;;;20797396;28;20357;-83
2023/06/10 16:33:41;;;;;;;2.50;0.90;;;;;;;;;;20814304;28;21384;-83
2023/06/10 16:43:43;;;;;;;1.10;0.85;;;;;;;;;;20816929;28;20227;-85
2023/06/10 16:53:45;;;;;;;1.58;0.98;;;;;;;;;;20783141;28;20242;-84
2023/06/10 17:03:46;;;;;;;2.35;1.17;;;;;;;;;;20785221;28;20219;-84
2023/06/10 17:13:48;;;;;;;2.65;0.88;;;;;;;;;;20763274;28;20223;-84
2023/06/10 17:23:50;;;;;;;2.85;1.00;;;;;;;;;;20822336;28;20791;-83
2023/06/10 17:33:51;;;;;;;1.67;1.00;;;;;;;;;;20866652;28;20269;-83
2023/06/10 17:43:53;;;;;;;1.75;0.98;;;;;;;;;;20781409;28;20281;-82
2023/06/10 17:53:55;;;;;;;1.38;0.80;;;;;;;;;;20730316;28;20226;-83
2023/06/10 18:03:57;;;;;;;1.08;0.68;;;;;;;;;;20805487;28;20231;-83
2023/06/10 18:13:59;;;;;;;1.40;0.80;;;;;;;;;;20858455;28;20234;-83
2023/06/10 18:24:01;;;;;;;1.35;0.90;;;;;;;;;;20801981;28;20272;-82
2023/06/10 18:34:03;;;;;;;1.13;0.75;;;;;;;;;;20838063;28;20227;-83
2023/06/10 18:44:05;;;;;;;1.20;0.88;;;;;;;;;;20793332;28;20588;-83
2023/06/10 18:54:06;;;;;;;0.95;0.70;;;;;;;;;;20816431;28;20231;-81
2023/06/10 19:04:10;;;;;;;3.30;0.93;;;;;;;;;;20816638;28;20231;-84
2023/06/10 19:14:13;;;;;;;1.00;0.70;;;;;;;;;;20791364;28;20286;-83
2023/06/10 19:24:15;;;;;;;1.45;0.98;;;;;;;;;;20852481;28;20218;-82
2023/06/10 19:34:17;;;;;;;1.35;0.80;;;;;;;;;;20813818;28;20235;-83
2023/06/10 19:44:21;;;;;;;1.10;0.80;;;;;;;;;;20830686;28;20593;-86
2023/06/10 19:54:22;;;;;;;1.08;0.75;;;;;;;;;;20838893;28;20244;-86
2023/06/10 20:04:25;;;;;;;1.33;0.70;;;;;;;;;;20869304;28;20249;-85
2023/06/10 20:14:57;;;;;;;2.05;0.90;;;29.10;75.80;;;;;;20801896;28;20371;-85
2023/06/10 20:24:59;;;;;;;1.00;0.70;;;;;;;;;;20832155;28;20708;-84
2023/06/10 20:35:01;;;;;;;1.55;0.82;;;;;;;;;;20836650;28;20230;-84
2023/06/10 20:45:04;;;;;;;1.25;0.80;;;;;;;;;;20851825;28;20676;-84
2023/06/10 20:55:06;;;;;;;1.13;0.88;;;;;;;;;;20833638;28;20795;-85
2023/06/10 21:05:08;;;;;;;0.88;0.65;;;;;;;;;;20836565;28;20236;-85
2023/06/10 21:15:09;;;;;;;1.30;1.00;;;;;;;;;;20796286;28;20656;-86
2023/06/10 21:25:11;;;;;;;1.20;0.80;;;;;;;;;;20878896;28;20225;-85
2023/06/10 21:35:13;;;;;;;2.95;1.25;;;;;;;;;;20799689;28;20236;-84
2023/06/10 21:45:15;;;;;;;1.67;1.15;;;;;;;;;;20763844;28;20218;-85
2023/06/10 21:55:17;;;;;;;1.48;1.00;;;;;;;;;;20850581;28;20242;-85
2023/06/10 22:05:18;;;;;;;1.98;1.02;;;;;;;;;;20825239;28;20268;-85
2023/06/10 22:15:20;;;;;;;1.27;0.85;;;;;;;;;;20806248;28;20233;-85
2023/06/10 22:25:22;;;;;;;2.05;1.10;;;;;;;;;;20877888;28;20216;-84
2023/06/10 22:35:24;;;;;;;3.28;1.40;;;;;;;;;;20846598;28;20233;-86
2023/06/10 22:45:26;;;;;;;2.00;1.10;;;;;;;;;;20815497;28;20242;-86
2023/06/10 22:55:28;;;;;;;1.40;1.00;;;;;;;;;;20893484;28;20270;-84
2023/06/10 23:05:31;;;;;;;1.00;0.90;;;;;;;;;;20837214;28;20286;-84
2023/06/10 23:15:32;;;;;;;1.35;1.00;;;;;;;;;;20852820;28;20579;-83
2023/06/10 23:25:34;;;;;;;2.83;1.00;;;;;;;;;;20829047;28;20354;-83
2023/06/10 23:35:36;;;;;;;1.63;0.90;;;;;;;;;;20833671;28;20240;-84
2023/06/10 23:45:37;;;;;;;2.40;1.35;;;;;;;;;;20821811;28;20343;-85
2023/06/10 23:55:39;;;;;;;1.63;1.02;;;;;;;;;;20820155;28;20267;-84
